createdAt,value
2023-02-06T00:01:46.310Z,-3.46
2023-02-06T00:04:14.917Z,-3.48
2023-02-06T00:06:43.686Z,-3.53
2023-02-06T00:09:12.068Z,-3.56
2023-02-06T00:11:39.989Z,-3.49
2023-02-06T00:14:08.298Z,-3.47
2023-02-06T00:16:37.230Z,-3.67
2023-02-06T00:19:05.593Z,-3.72
2023-02-06T00:21:34.554Z,-3.50
2023-02-06T00:24:03.834Z,-3.48
2023-02-06T00:26:33.402Z,-3.53
2023-02-06T00:29:02.162Z,-3.49
2023-02-06T00:31:31.037Z,-3.49
2023-02-06T00:33:59.785Z,-3.79
2023-02-06T00:36:28.411Z,-3.60
2023-02-06T00:38:57.219Z,-3.49
2023-02-06T00:41:25.190Z,-3.77
2023-02-06T00:43:53.165Z,-3.77
2023-02-06T00:46:21.912Z,-3.43
2023-02-06T00:48:50.351Z,-3.57
2023-02-06T00:51:18.390Z,-3.48
2023-02-06T00:53:46.520Z,-3.73
2023-02-06T00:56:14.449Z,-3.48
2023-02-06T00:58:42.256Z,-3.56
2023-02-06T01:01:13.063Z,-3.77
2023-02-06T01:03:41.027Z,-3.58
2023-02-06T01:06:10.717Z,-3.85
2023-02-06T01:08:39.165Z,-3.51
2023-02-06T01:11:13.474Z,-3.78
2023-02-06T01:13:43.791Z,-3.57
2023-02-06T01:16:16.553Z,-3.57
2023-02-06T01:18:46.322Z,-3.50
2023-02-06T01:21:22.776Z,-3.76
2023-02-06T01:23:55.380Z,-3.54
2023-02-06T01:26:29.248Z,-3.72
2023-02-06T01:28:57.844Z,-3.58
2023-02-06T01:31:29.195Z,-3.86
2023-02-06T01:34:00.444Z,-3.46
2023-02-06T01:36:29.654Z,-3.56
2023-02-06T01:38:57.972Z,-3.53
2023-02-06T01:41:26.254Z,-3.53
2023-02-06T01:44:24.707Z,-3.59
2023-02-06T01:46:57.750Z,-3.53
2023-02-06T01:49:40.023Z,-3.54
2023-02-06T01:52:21.999Z,-3.53
2023-02-06T01:55:01.484Z,-3.63
2023-02-06T01:57:30.707Z,-3.88
2023-02-06T02:00:06.287Z,-3.70
2023-02-06T02:02:45.186Z,-3.64
2023-02-06T02:05:13.983Z,-3.86
2023-02-06T02:08:03.087Z,-3.50
2023-02-06T02:10:32.706Z,-3.71
2023-02-06T02:13:00.673Z,-3.57
2023-02-06T02:16:09.707Z,-3.75
2023-02-06T02:19:06.072Z,-3.57
2023-02-06T02:21:58.957Z,-3.63
2023-02-06T02:25:15.247Z,-3.60
2023-02-06T02:28:34.544Z,-3.86
2023-02-06T02:31:48.294Z,-3.78
2023-02-06T02:34:40.986Z,-3.56
2023-02-06T02:37:52.628Z,-3.53
2023-02-06T02:40:51.191Z,-3.53
2023-02-06T02:43:51.007Z,-3.86
2023-02-06T02:46:43.249Z,-3.61
2023-02-06T02:49:22.030Z,-3.56
2023-02-06T02:51:51.772Z,-3.52
2023-02-06T02:54:21.171Z,-3.54
2023-02-06T02:56:49.431Z,-3.53
2023-02-06T02:59:25.806Z,-3.91
2023-02-06T03:02:08.138Z,-3.58
2023-02-06T03:04:53.650Z,-3.60
2023-02-06T03:07:42.994Z,-3.85
2023-02-06T03:10:37.311Z,-3.63
2023-02-06T03:13:29.490Z,-3.62
2023-02-06T03:16:55.150Z,-3.62
2023-02-06T03:19:32.988Z,-3.65
2023-02-06T03:22:03.620Z,-3.68
2023-02-06T03:24:37.461Z,-3.71
2023-02-06T03:27:12.104Z,-3.75
2023-02-06T03:29:43.178Z,-3.77
2023-02-06T03:32:24.277Z,-3.76
2023-02-06T03:35:18.971Z,-3.82
2023-02-06T03:37:49.277Z,-3.77
2023-02-06T03:40:18.520Z,-3.85
2023-02-06T03:42:56.711Z,-3.90
2023-02-06T03:45:41.567Z,-4.23
2023-02-06T03:48:22.561Z,-3.95
2023-02-06T03:50:54.408Z,-3.95
2023-02-06T03:53:24.212Z,-4.16
2023-02-06T03:55:59.949Z,-3.94
2023-02-06T03:58:28.567Z,-3.95
2023-02-06T04:00:57.315Z,-4.61
2023-02-06T04:03:27.081Z,-3.89
2023-02-06T04:05:57.072Z,-3.96
2023-02-06T04:08:25.644Z,-3.98
2023-02-06T04:10:53.552Z,-4.21
2023-02-06T04:13:21.790Z,-4.00
2023-02-06T04:15:50.153Z,-4.10
2023-02-06T04:18:18.148Z,-4.33
2023-02-06T04:20:46.298Z,-4.01
2023-02-06T04:23:14.139Z,-4.09
2023-02-06T04:25:42.001Z,-4.08
2023-02-06T04:28:10.243Z,-4.16
2023-02-06T04:30:38.102Z,-4.21
2023-02-06T04:33:06.439Z,-4.23
2023-02-06T04:35:35.141Z,-4.47
2023-02-06T04:38:03.534Z,-4.27
2023-02-06T04:40:31.449Z,-4.28
2023-02-06T04:42:59.984Z,-4.38
2023-02-06T04:45:27.906Z,-4.63
2023-02-06T04:47:56.342Z,-4.66
2023-02-06T04:50:31.633Z,-4.39
2023-02-06T04:52:59.887Z,-4.44
2023-02-06T04:55:28.003Z,-4.45
2023-02-06T04:57:56.003Z,-4.39
2023-02-06T05:00:24.008Z,-4.54
2023-02-06T05:02:52.224Z,-4.48
2023-02-06T05:05:20.356Z,-4.56
2023-02-06T05:07:48.286Z,-4.48
2023-02-06T05:10:16.547Z,-5.03
2023-02-06T05:12:44.739Z,-4.60
2023-02-06T05:15:12.632Z,-4.57
2023-02-06T05:17:40.757Z,-4.55
2023-02-06T05:20:09.961Z,-4.54
2023-02-06T05:22:38.062Z,-4.55
2023-02-06T05:25:06.540Z,-4.58
2023-02-06T05:27:34.854Z,-4.55
2023-02-06T05:30:03.614Z,-4.51
2023-02-06T05:32:32.974Z,-4.55
2023-02-06T05:35:00.889Z,-4.57
2023-02-06T05:37:28.790Z,-4.60
2023-02-06T05:39:59.116Z,-4.61
2023-02-06T05:42:27.953Z,-4.62
2023-02-06T05:44:55.924Z,-4.64
2023-02-06T05:47:23.982Z,-4.68
2023-02-06T05:49:52.875Z,-4.63
2023-02-06T05:52:20.776Z,-4.80
2023-02-06T05:54:49.922Z,-4.59
2023-02-06T05:57:17.895Z,-4.60
2023-02-06T05:59:45.762Z,-4.92
2023-02-06T06:02:13.761Z,-4.64
2023-02-06T06:04:41.944Z,-4.63
2023-02-06T06:07:10.212Z,-4.89
2023-02-06T06:09:38.595Z,-4.57
2023-02-06T06:12:07.034Z,-4.56
2023-02-06T06:14:35.385Z,-4.48
2023-02-06T06:17:03.630Z,-4.50
2023-02-06T06:19:31.933Z,-4.48
2023-02-06T06:21:59.976Z,-4.59
2023-02-06T06:24:28.361Z,-4.56
2023-02-06T06:26:56.647Z,-4.95
2023-02-06T06:29:25.114Z,-4.87
2023-02-06T06:31:55.319Z,-5.12
2023-02-06T06:34:23.628Z,-4.78
2023-02-06T06:36:52.313Z,-4.76
2023-02-06T06:39:20.676Z,-4.80
2023-02-06T06:41:48.742Z,-4.95
2023-02-06T06:44:17.438Z,-4.77
2023-02-06T06:46:45.663Z,-4.89
2023-02-06T06:49:13.718Z,-4.44
2023-02-06T06:51:42.102Z,-4.46
2023-02-06T06:54:10.132Z,-4.10
2023-02-06T06:56:38.287Z,-4.05
2023-02-06T06:59:06.563Z,-3.83
2023-02-06T07:01:34.800Z,-4.03
2023-02-06T07:04:02.881Z,-3.86
2023-02-06T07:06:31.186Z,-3.79
2023-02-06T07:08:59.182Z,-3.81
2023-02-06T07:11:27.460Z,-3.77
2023-02-06T07:13:55.414Z,-3.89
2023-02-06T07:16:24.727Z,-4.07
2023-02-06T07:18:52.982Z,-5.19
2023-02-06T07:21:21.092Z,-4.40
2023-02-06T07:23:49.134Z,-3.90
2023-02-06T07:26:17.163Z,-3.84
2023-02-06T07:28:45.179Z,-3.45
2023-02-06T07:31:13.281Z,-3.73
2023-02-06T07:33:42.010Z,-3.29
2023-02-06T07:36:15.946Z,-3.17
2023-02-06T07:38:44.235Z,-2.96
2023-02-06T07:41:12.866Z,-2.89
2023-02-06T07:43:41.831Z,-2.67
2023-02-06T07:46:10.177Z,-3.03
2023-02-06T07:48:38.690Z,-2.99
2023-02-06T07:51:10.378Z,-2.75
2023-02-06T07:53:38.688Z,-2.56
2023-02-06T07:56:16.632Z,-2.50
2023-02-06T07:58:49.072Z,-2.54
2023-02-06T08:01:17.321Z,-2.24
2023-02-06T08:03:45.539Z,-3.09
2023-02-06T08:06:16.632Z,-3.18
2023-02-06T08:08:45.253Z,-2.82
2023-02-06T08:11:19.571Z,-3.02
2023-02-06T08:13:48.462Z,-2.47
2023-02-06T08:16:22.592Z,-2.05
2023-02-06T08:18:51.025Z,-2.40
2023-02-06T08:21:25.185Z,-2.63
2023-02-06T08:23:58.187Z,-3.28
2023-02-06T08:26:29.551Z,-2.48
2023-02-06T08:29:01.292Z,-2.71
2023-02-06T08:31:32.418Z,-3.42
2023-02-06T08:34:01.083Z,-3.94
2023-02-06T08:36:32.077Z,-3.83
2023-02-06T08:39:01.795Z,-3.83
2023-02-06T08:41:39.247Z,-4.22
2023-02-06T08:44:14.768Z,-4.52
2023-02-06T08:46:45.106Z,-4.30
2023-02-06T08:49:19.448Z,-4.10
2023-02-06T08:51:50.433Z,-3.98
2023-02-06T08:54:23.305Z,-3.34
2023-02-06T08:56:53.020Z,-3.85
2023-02-06T08:59:21.220Z,-3.58
2023-02-06T09:01:49.679Z,-3.20
2023-02-06T09:04:19.245Z,-3.19
2023-02-06T09:06:49.267Z,-3.09
2023-02-06T09:09:18.626Z,-3.71
2023-02-06T09:11:47.843Z,-3.13
2023-02-06T09:14:18.159Z,-3.12
2023-02-06T09:16:46.720Z,-2.92
2023-02-06T09:19:15.069Z,-3.06
2023-02-06T09:21:43.284Z,-3.00
2023-02-06T09:24:12.202Z,-2.93
2023-02-06T09:26:58.519Z,-3.23
2023-02-06T09:29:32.333Z,-2.66
2023-02-06T09:32:00.865Z,-2.44
2023-02-06T09:34:29.348Z,-2.66
2023-02-06T09:36:58.431Z,-2.06
2023-02-06T09:39:26.681Z,-1.70
2023-02-06T09:42:29.673Z,-1.60
2023-02-06T09:45:12.081Z,-1.80
2023-02-06T09:47:47.586Z,-2.29
2023-02-06T09:50:51.271Z,-2.15
2023-02-06T09:53:42.697Z,-2.09
2023-02-06T09:56:39.938Z,-1.77
2023-02-06T09:59:29.899Z,-1.96
2023-02-06T10:02:48.428Z,-1.63
2023-02-06T10:06:00.818Z,-1.13
2023-02-06T10:09:19.040Z,-1.10
2023-02-06T10:11:57.091Z,-1.10
2023-02-06T10:14:53.100Z,-0.73
2023-02-06T10:17:34.392Z,0.14
2023-02-06T10:20:39.247Z,0.12
2023-02-06T10:23:23.297Z,0.42
2023-02-06T10:26:19.727Z,0.76
2023-02-06T10:28:56.691Z,1.48
2023-02-06T10:31:24.913Z,1.47
2023-02-06T10:34:19.988Z,0.54
2023-02-06T10:37:19.390Z,-0.91
2023-02-06T10:39:50.537Z,-1.02
2023-02-06T10:42:56.635Z,-0.71
2023-02-06T10:45:51.779Z,-0.44
2023-02-06T10:48:46.462Z,-0.65
2023-02-06T10:51:43.999Z,-1.33
2023-02-06T10:54:23.956Z,-0.77
2023-02-06T10:56:54.935Z,0.07
2023-02-06T10:59:34.602Z,0.32
2023-02-06T11:03:07.087Z,0.20
2023-02-06T11:05:37.226Z,0.51
2023-02-06T11:08:32.224Z,0.27
2023-02-06T11:11:29.762Z,0.42
2023-02-06T11:14:24.940Z,0.12
2023-02-06T11:16:54.318Z,0.27
2023-02-06T11:19:48.854Z,0.42
2023-02-06T11:22:28.982Z,0.31
2023-02-06T11:25:03.735Z,0.58
2023-02-06T11:27:34.889Z,0.75
2023-02-06T11:30:22.772Z,0.31
2023-02-06T11:33:04.636Z,1.07
2023-02-06T11:35:51.591Z,0.92
2023-02-06T11:38:24.396Z,0.79
2023-02-06T11:41:18.987Z,0.43
2023-02-06T11:43:51.935Z,0.62
2023-02-06T11:46:32.711Z,0.48
2023-02-06T11:49:25.025Z,0.46
2023-02-06T11:52:01.354Z,0.85
2023-02-06T11:54:35.745Z,0.71
2023-02-06T11:57:08.270Z,0.93
2023-02-06T11:59:49.361Z,0.53
2023-02-06T12:02:35.548Z,0.97
2023-02-06T12:05:17.169Z,1.12
2023-02-06T12:07:52.376Z,0.77
2023-02-06T12:10:23.756Z,1.18
2023-02-06T12:13:26.680Z,0.90
2023-02-06T12:16:00.986Z,0.67
2023-02-06T12:18:42.608Z,1.90
2023-02-06T12:21:36.979Z,1.63
2023-02-06T12:24:31.697Z,1.23
2023-02-06T12:27:06.410Z,1.10
2023-02-06T12:30:03.265Z,1.43
2023-02-06T12:32:41.164Z,1.40
2023-02-06T12:35:40.422Z,1.35
2023-02-06T12:38:46.077Z,1.55
2023-02-06T12:41:41.857Z,1.74
2023-02-06T12:44:34.402Z,1.28
2023-02-06T12:47:09.837Z,1.25
2023-02-06T12:50:04.184Z,1.12
2023-02-06T12:53:07.608Z,1.43
2023-02-06T12:55:45.941Z,1.28
2023-02-06T12:58:42.575Z,1.62
2023-02-06T13:01:43.479Z,1.84
2023-02-06T13:04:25.171Z,1.39
2023-02-06T13:07:08.200Z,1.23
2023-02-06T13:10:02.483Z,1.15
2023-02-06T13:12:32.820Z,1.01
2023-02-06T13:15:08.278Z,1.19
2023-02-06T13:17:43.047Z,1.15
2023-02-06T13:20:18.657Z,1.14
2023-02-06T13:23:16.643Z,0.81
2023-02-06T13:25:44.801Z,0.92
2023-02-06T13:28:21.950Z,0.78
2023-02-06T13:31:21.727Z,0.62
2023-02-06T13:34:02.251Z,1.16
2023-02-06T13:36:50.162Z,0.95
2023-02-06T13:39:33.530Z,1.05
2023-02-06T13:42:32.030Z,0.44
2023-02-06T13:45:04.891Z,-0.03
2023-02-06T13:47:55.236Z,0.46
2023-02-06T13:50:54.815Z,-0.03
2023-02-06T13:53:33.313Z,-0.16
2023-02-06T13:56:36.147Z,0.11
2023-02-06T13:59:27.977Z,0.03
2023-02-06T14:01:57.103Z,0.29
2023-02-06T14:04:30.814Z,0.39
2023-02-06T14:07:08.269Z,-0.13
2023-02-06T14:09:45.227Z,0.23
2023-02-06T14:12:53.324Z,-0.02
2023-02-06T14:16:04.853Z,-0.20
2023-02-06T14:19:03.202Z,-0.79
2023-02-06T14:21:59.210Z,-0.24
2023-02-06T14:24:43.359Z,0.02
2023-02-06T14:27:32.910Z,-0.10
2023-02-06T14:30:35.976Z,-0.25
2023-02-06T14:33:42.243Z,-0.43
2023-02-06T14:36:47.604Z,-0.52
2023-02-06T14:39:55.964Z,-0.39
2023-02-06T14:42:32.986Z,-0.98
2023-02-06T14:45:05.810Z,-1.43
2023-02-06T14:47:43.282Z,-1.29
2023-02-06T14:50:28.109Z,-1.51
2023-02-06T14:53:11.440Z,-1.17
2023-02-06T14:55:43.283Z,-1.70
2023-02-06T14:58:31.928Z,-1.39
2023-02-06T15:01:23.927Z,-1.31
2023-02-06T15:03:53.003Z,-1.48
2023-02-06T15:06:38.565Z,-1.63
2023-02-06T15:09:08.559Z,-1.84
2023-02-06T15:11:39.999Z,-1.85
2023-02-06T15:14:35.811Z,-2.21
2023-02-06T15:17:04.013Z,-2.62
2023-02-06T15:19:35.853Z,-2.21
2023-02-06T15:22:13.534Z,-2.34
2023-02-06T15:25:28.251Z,-2.65
2023-02-06T15:28:18.978Z,-3.00
2023-02-06T15:30:53.367Z,-3.14
2023-02-06T15:33:29.220Z,-3.10
2023-02-06T15:36:03.070Z,-3.26
2023-02-06T15:38:34.580Z,-3.71
2023-02-06T15:41:08.941Z,-3.72
2023-02-06T15:43:38.176Z,-4.00
2023-02-06T15:46:07.235Z,-4.60
2023-02-06T15:48:41.473Z,-4.27
2023-02-06T15:51:40.035Z,-4.81
2023-02-06T15:54:28.201Z,-4.27
2023-02-06T15:57:17.640Z,-4.52
2023-02-06T15:59:46.329Z,-4.52
2023-02-06T16:02:26.914Z,-4.27
2023-02-06T16:04:55.730Z,-4.42
2023-02-06T16:07:32.591Z,-4.47
2023-02-06T16:10:08.763Z,-4.85
2023-02-06T16:12:41.936Z,-4.47
2023-02-06T16:15:40.130Z,-4.63
2023-02-06T16:18:34.018Z,-5.12
2023-02-06T16:21:31.316Z,-4.81
2023-02-06T16:24:17.862Z,-4.90
2023-02-06T16:26:52.529Z,-4.75
2023-02-06T16:29:32.118Z,-4.71
2023-02-06T16:32:12.277Z,-4.77
2023-02-06T16:34:46.183Z,-4.84
2023-02-06T16:37:28.537Z,-4.87
2023-02-06T16:39:58.078Z,-5.00
2023-02-06T16:42:35.148Z,-5.07
2023-02-06T16:45:26.790Z,-5.48
2023-02-06T16:47:56.242Z,-5.27
2023-02-06T16:50:25.396Z,-5.64
2023-02-06T16:53:03.683Z,-5.39
2023-02-06T16:55:32.597Z,-5.32
2023-02-06T16:58:02.674Z,-5.72
2023-02-06T17:00:34.079Z,-5.42
2023-02-06T17:03:03.665Z,-5.78
2023-02-06T17:05:33.559Z,-6.16
2023-02-06T17:08:04.236Z,-6.12
2023-02-06T17:10:33.213Z,-6.28
2023-02-06T17:13:01.905Z,-6.42
2023-02-06T17:15:31.148Z,-6.34
2023-02-06T17:17:59.820Z,-6.74
2023-02-06T17:20:37.958Z,-6.29
2023-02-06T17:23:07.178Z,-6.31
2023-02-06T17:25:36.212Z,-6.39
2023-02-06T17:28:08.243Z,-6.56
2023-02-06T17:30:38.333Z,-6.94
2023-02-06T17:33:07.809Z,-6.59
2023-02-06T17:35:40.216Z,-6.88
2023-02-06T17:38:10.761Z,-6.69
2023-02-06T17:40:42.701Z,-6.75
2023-02-06T17:43:11.477Z,-6.78
2023-02-06T17:45:41.072Z,-6.68
2023-02-06T17:48:09.914Z,-6.92
2023-02-06T17:50:40.908Z,-7.12
2023-02-06T17:53:14.301Z,-7.02
2023-02-06T17:55:42.672Z,-7.27
2023-02-06T17:58:12.028Z,-6.66
2023-02-06T18:00:41.017Z,-7.04
2023-02-06T18:03:10.033Z,-6.91
2023-02-06T18:05:39.434Z,-7.22
2023-02-06T18:08:08.168Z,-7.25
2023-02-06T18:10:36.786Z,-7.30
2023-02-06T18:13:05.170Z,-7.42
2023-02-06T18:15:34.912Z,-7.64
2023-02-06T18:18:05.237Z,-7.42
2023-02-06T18:20:36.048Z,-7.33
2023-02-06T18:23:04.623Z,-7.67
2023-02-06T18:25:32.911Z,-7.46
2023-02-06T18:28:01.718Z,-7.58
2023-02-06T18:30:30.307Z,-7.85
2023-02-06T18:33:02.122Z,-8.05
2023-02-06T18:35:30.542Z,-8.23
2023-02-06T18:37:59.248Z,-8.37
2023-02-06T18:40:27.914Z,-7.86
2023-02-06T18:42:56.567Z,-8.02
2023-02-06T18:45:34.636Z,-8.08
2023-02-06T18:48:09.230Z,-8.50
2023-02-06T18:50:42.904Z,-8.21
2023-02-06T18:53:11.409Z,-8.17
2023-02-06T18:55:40.904Z,-8.42
2023-02-06T18:58:12.615Z,-8.09
2023-02-06T19:00:43.236Z,-8.19
2023-02-06T19:03:17.595Z,-8.52
2023-02-06T19:05:46.614Z,-8.12
2023-02-06T19:08:23.479Z,-8.45
2023-02-06T19:10:52.225Z,-8.10
2023-02-06T19:13:23.577Z,-8.13
2023-02-06T19:15:52.412Z,-8.59
2023-02-06T19:18:35.947Z,-8.44
2023-02-06T19:21:11.221Z,-8.55
2023-02-06T19:23:40.978Z,-8.20
2023-02-06T19:26:14.458Z,-8.48
2023-02-06T19:28:44.351Z,-8.32
2023-02-06T19:31:15.687Z,-8.18
2023-02-06T19:33:44.389Z,-8.28
2023-02-06T19:36:16.234Z,-8.83
2023-02-06T19:38:45.144Z,-8.73
2023-02-06T19:41:24.276Z,-8.75
2023-02-06T19:43:55.367Z,-8.79
2023-02-06T19:46:27.051Z,-8.59
2023-02-06T19:48:56.237Z,-8.48
2023-02-06T19:51:32.735Z,-8.39
2023-02-06T19:54:02.295Z,-8.47
2023-02-06T19:56:40.852Z,-8.22
2023-02-06T19:59:28.432Z,-8.19
2023-02-06T20:02:03.200Z,-8.16
2023-02-06T20:04:37.115Z,-8.24
2023-02-06T20:07:08.325Z,-8.33
2023-02-06T20:09:42.076Z,-8.41
2023-02-06T20:12:15.413Z,-8.51
2023-02-06T20:14:44.344Z,-8.52
2023-02-06T20:17:13.740Z,-8.55
2023-02-06T20:19:42.656Z,-9.61
2023-02-06T20:22:11.276Z,-8.61
2023-02-06T20:24:40.426Z,-8.54
2023-02-06T20:27:10.114Z,-8.88
2023-02-06T20:29:43.198Z,-8.64
2023-02-06T20:32:12.413Z,-8.97
2023-02-06T20:34:41.138Z,-8.69
2023-02-06T20:37:09.963Z,-8.81
2023-02-06T20:39:38.926Z,-8.75
2023-02-06T20:42:07.596Z,-8.72
2023-02-06T20:44:37.166Z,-8.61
2023-02-06T20:47:06.426Z,-8.72
2023-02-06T20:49:36.016Z,-8.73
2023-02-06T20:52:04.688Z,-8.85
2023-02-06T20:54:34.287Z,-8.86
2023-02-06T20:57:03.660Z,-8.84
2023-02-06T20:59:32.492Z,-8.81
2023-02-06T21:02:01.383Z,-9.15
2023-02-06T21:04:34.266Z,-8.85
2023-02-06T21:07:03.211Z,-9.13
2023-02-06T21:09:32.168Z,-8.87
2023-02-06T21:12:01.399Z,-8.98
2023-02-06T21:14:34.919Z,-9.17
2023-02-06T21:17:04.284Z,-9.00
2023-02-06T21:19:36.176Z,-9.20
2023-02-06T21:22:05.532Z,-9.11
2023-02-06T21:24:36.964Z,-9.14
2023-02-06T21:27:09.136Z,-8.90
2023-02-06T21:29:42.757Z,-8.86
2023-02-06T21:32:14.459Z,-8.50
2023-02-06T21:34:44.033Z,-8.68
2023-02-06T21:37:12.798Z,-8.39
2023-02-06T21:39:42.171Z,-8.33
2023-02-06T21:42:12.036Z,-8.30
2023-02-06T21:44:41.157Z,-8.07
2023-02-06T21:47:10.418Z,-8.93
2023-02-06T21:49:39.035Z,-8.08
2023-02-06T21:52:07.545Z,-8.45
2023-02-06T21:54:36.097Z,-7.94
2023-02-06T21:57:05.069Z,-7.98
2023-02-06T21:59:34.877Z,-8.13
2023-02-06T22:02:03.469Z,-8.19
2023-02-06T22:04:32.032Z,-8.26
2023-02-06T22:07:01.159Z,-8.28
2023-02-06T22:09:29.651Z,-8.66
2023-02-06T22:11:58.566Z,-8.39
2023-02-06T22:14:27.240Z,-8.37
2023-02-06T22:16:56.376Z,-8.36
2023-02-06T22:19:25.741Z,-8.43
2023-02-06T22:21:54.141Z,-8.42
2023-02-06T22:24:23.972Z,-8.46
2023-02-06T22:26:52.529Z,-8.49
2023-02-06T22:29:21.339Z,-8.93
2023-02-06T22:31:50.026Z,-8.98
2023-02-06T22:34:21.250Z,-8.97
2023-02-06T22:36:54.184Z,-8.62
2023-02-06T22:39:24.615Z,-8.56
2023-02-06T22:41:54.153Z,-8.51
2023-02-06T22:44:22.799Z,-8.58
2023-02-06T22:46:53.723Z,-8.65
2023-02-06T22:49:24.569Z,-8.41
2023-02-06T22:51:52.983Z,-8.79
2023-02-06T22:54:21.420Z,-8.65
2023-02-06T22:56:50.367Z,-8.70
2023-02-06T22:59:25.271Z,-8.61
2023-02-06T23:01:58.289Z,-8.63
2023-02-06T23:04:30.959Z,-8.89
2023-02-06T23:06:59.913Z,-8.61
2023-02-06T23:09:38.774Z,-8.64
2023-02-06T23:12:10.211Z,-8.59
2023-02-06T23:14:39.460Z,-8.55
2023-02-06T23:17:08.917Z,-8.47
2023-02-06T23:19:38.829Z,-8.39
2023-02-06T23:22:08.538Z,-8.30
2023-02-06T23:24:37.893Z,-8.22
2023-02-06T23:27:07.389Z,-8.20
2023-02-06T23:29:37.067Z,-8.37
2023-02-06T23:32:06.565Z,-8.67
2023-02-06T23:34:35.065Z,-8.39
2023-02-06T23:37:04.118Z,-8.30
2023-02-06T23:39:32.704Z,-8.35
2023-02-06T23:42:01.225Z,-8.80
2023-02-06T23:44:30.390Z,-8.42
2023-02-06T23:46:59.218Z,-8.37
2023-02-06T23:49:28.176Z,-8.45
2023-02-06T23:51:57.614Z,-8.40
2023-02-06T23:54:26.596Z,-8.42
2023-02-06T23:56:55.911Z,-8.33
2023-02-06T23:59:24.635Z,-8.21
